createdAt,value
2022-12-15T00:02:15.486Z,69.18
2022-12-15T00:05:22.744Z,66.70
2022-12-15T00:08:29.662Z,72.18
2022-12-15T00:11:36.664Z,73.57
2022-12-15T00:14:44.072Z,68.95
2022-12-15T00:17:51.509Z,77.95
2022-12-15T00:20:51.751Z,81.65
2022-12-15T00:23:58.610Z,89.68
2022-12-15T00:26:59.463Z,92.88
2022-12-15T00:30:06.752Z,87.22
2022-12-15T00:33:07.514Z,89.18
2022-12-15T00:36:14.733Z,87.60
2022-12-15T00:39:01.959Z,93.22
2022-12-15T00:41:52.846Z,92.45
2022-12-15T00:44:34.993Z,86.03
2022-12-15T00:47:23.792Z,89.88
2022-12-15T00:50:30.791Z,101.60
2022-12-15T00:53:31.306Z,92.82
2022-12-15T00:56:39.724Z,93.90
2022-12-15T00:59:40.122Z,87.78
2022-12-15T01:02:46.929Z,98.75
2022-12-15T01:05:53.689Z,96.30
2022-12-15T01:08:54.643Z,95.65
2022-12-15T01:12:01.673Z,96.15
2022-12-15T01:15:08.740Z,100.82
2022-12-15T01:18:09.319Z,105.70
2022-12-15T01:20:57.691Z,106.85
2022-12-15T01:23:47.025Z,107.68
2022-12-15T01:26:28.694Z,112.40
2022-12-15T01:29:18.101Z,119.70
2022-12-15T01:31:59.865Z,116.75
2022-12-15T01:34:42.157Z,114.85
2022-12-15T01:37:30.781Z,121.22
2022-12-15T01:40:36.418Z,117.95
2022-12-15T01:43:50.723Z,125.75
2022-12-15T01:46:45.713Z,125.32
2022-12-15T01:49:40.047Z,123.97
2022-12-15T01:55:11.781Z,118.35
2022-12-15T01:57:56.008Z,125.03
2022-12-15T02:00:44.790Z,114.82
2022-12-15T02:03:27.178Z,135.02
2022-12-15T02:06:16.839Z,122.03
2022-12-15T02:09:04.081Z,127.80
2022-12-15T02:12:01.738Z,120.57
2022-12-15T02:15:19.725Z,130.73
2022-12-15T02:18:28.167Z,119.00
2022-12-15T02:21:28.719Z,136.48
2022-12-15T02:24:49.572Z,136.02
2022-12-15T02:27:46.986Z,135.48
2022-12-15T02:30:37.777Z,140.30
2022-12-15T02:33:32.430Z,138.18
2022-12-15T02:36:34.716Z,131.90
2022-12-15T02:39:20.032Z,142.75
2022-12-15T02:42:08.760Z,151.50
2022-12-15T02:45:00.440Z,156.45
2022-12-15T02:48:06.749Z,145.40
2022-12-15T02:51:23.004Z,153.88
2022-12-15T02:54:26.637Z,170.52
2022-12-15T03:00:16.774Z,154.88
2022-12-15T03:03:04.674Z,162.77
2022-12-15T03:05:54.795Z,152.63
2022-12-15T03:08:36.952Z,147.95
2022-12-15T03:11:25.836Z,144.90
2022-12-15T03:14:08.049Z,141.68
2022-12-15T03:16:56.796Z,139.57
2022-12-15T03:19:45.844Z,133.18
2022-12-15T03:22:37.959Z,139.52
2022-12-15T03:25:20.631Z,139.15
2022-12-15T03:28:09.026Z,115.35
2022-12-15T03:30:50.884Z,110.90
2022-12-15T03:33:42.117Z,135.77
2022-12-15T03:36:23.780Z,133.48
2022-12-15T03:39:13.424Z,123.45
2022-12-15T03:41:55.768Z,110.40
2022-12-15T03:44:37.948Z,121.47
2022-12-15T03:47:26.701Z,106.65
2022-12-15T03:50:16.062Z,109.40
2022-12-15T03:53:02.715Z,100.22
2022-12-15T03:55:50.941Z,112.38
2022-12-15T03:58:33.151Z,111.60
2022-12-15T04:01:43.159Z,106.47
2022-12-15T04:04:24.769Z,107.47
2022-12-15T04:07:06.894Z,93.03
2022-12-15T04:09:55.709Z,93.13
2022-12-15T04:12:43.976Z,96.18
2022-12-15T04:15:27.029Z,102.43
2022-12-15T04:18:18.085Z,119.57
2022-12-15T04:21:00.788Z,106.38
2022-12-15T04:24:07.213Z,115.38
2022-12-15T04:27:07.616Z,111.10
2022-12-15T04:30:14.652Z,115.20
2022-12-15T04:33:16.483Z,96.82
2022-12-15T04:36:23.631Z,88.53
2022-12-15T04:39:25.226Z,106.95
2022-12-15T04:42:31.746Z,98.60
2022-12-15T04:45:40.645Z,107.07
2022-12-15T04:48:53.629Z,120.53
2022-12-15T04:52:00.562Z,116.63
2022-12-15T04:55:01.330Z,121.32
2022-12-15T04:58:08.594Z,118.43
2022-12-15T05:01:09.430Z,131.95
2022-12-15T05:04:16.677Z,125.53
2022-12-15T05:07:17.511Z,128.85
2022-12-15T05:10:24.599Z,123.60
2022-12-15T05:13:41.764Z,121.80
2022-12-15T05:16:49.490Z,107.72
2022-12-15T05:19:50.714Z,113.70
2022-12-15T05:22:57.611Z,107.50
2022-12-15T05:26:04.591Z,95.10
2022-12-15T05:29:11.489Z,99.65
2022-12-15T05:32:00.693Z,87.28
2022-12-15T05:34:49.730Z,91.32
2022-12-15T05:37:32.240Z,94.22
2022-12-15T05:40:20.750Z,72.88
2022-12-15T05:43:06.046Z,69.60
2022-12-15T05:45:54.653Z,77.05
2022-12-15T05:48:50.743Z,73.82
2022-12-15T05:51:33.037Z,61.15
2022-12-15T05:54:25.699Z,52.17
2022-12-15T05:57:07.981Z,58.33
2022-12-15T05:59:56.754Z,57.50
2022-12-15T06:02:47.004Z,50.67
2022-12-15T06:05:38.668Z,54.78
2022-12-15T06:08:27.006Z,63.58
2022-12-15T06:11:10.735Z,55.10
2022-12-15T06:16:50.312Z,39.97
2022-12-15T06:19:39.072Z,40.80
2022-12-15T06:22:21.718Z,33.97
2022-12-15T06:25:03.881Z,39.75
2022-12-15T06:27:55.798Z,44.28
2022-12-15T06:30:40.852Z,41.28
2022-12-15T06:33:29.960Z,43.45
2022-12-15T06:36:25.209Z,51.38
2022-12-15T06:39:08.765Z,47.50
2022-12-15T06:41:56.954Z,38.88
2022-12-15T06:44:38.767Z,42.15
2022-12-15T06:47:33.509Z,35.10
2022-12-15T06:50:22.686Z,37.92
2022-12-15T06:53:07.024Z,42.95
2022-12-15T06:55:56.754Z,36.92
2022-12-15T06:58:39.030Z,53.25
2022-12-15T07:01:31.803Z,43.00
2022-12-15T07:04:14.051Z,47.45
2022-12-15T07:07:02.754Z,44.70
2022-12-15T07:09:51.617Z,51.47
2022-12-15T07:12:33.860Z,42.47
2022-12-15T07:15:22.574Z,47.83
2022-12-15T07:18:11.974Z,50.63
2022-12-15T07:20:54.743Z,30.48
2022-12-15T07:23:54.770Z,35.58
2022-12-15T07:26:38.723Z,35.15
2022-12-15T07:29:27.075Z,31.02
2022-12-15T07:32:09.656Z,27.77
2022-12-15T07:34:57.972Z,26.60
2022-12-15T07:37:40.758Z,25.27
2022-12-15T07:40:23.054Z,30.95
2022-12-15T07:43:11.740Z,20.85
2022-12-15T07:45:55.196Z,22.88
2022-12-15T07:48:43.689Z,24.35
2022-12-15T07:51:25.977Z,18.45
2022-12-15T07:54:14.695Z,21.20
2022-12-15T07:56:56.929Z,23.88
2022-12-15T07:59:45.741Z,23.17
2022-12-15T08:02:28.067Z,20.35
2022-12-15T08:05:16.748Z,28.77
2022-12-15T08:08:08.493Z,23.65
2022-12-15T08:10:54.691Z,40.45
2022-12-15T08:16:47.040Z,23.58
2022-12-15T08:19:35.845Z,24.05
2022-12-15T08:22:18.003Z,28.42
2022-12-15T08:25:06.654Z,25.73
2022-12-15T08:27:48.962Z,25.80
2022-12-15T08:30:37.751Z,24.67
2022-12-15T08:33:19.986Z,34.78
2022-12-15T08:36:10.703Z,35.20
2022-12-15T08:38:54.047Z,22.67
2022-12-15T08:41:42.710Z,21.83
2022-12-15T08:44:24.970Z,25.50
2022-12-15T08:47:13.644Z,19.50
2022-12-15T08:50:01.993Z,19.05
2022-12-15T08:53:13.789Z,23.33
2022-12-15T08:55:58.066Z,25.70
2022-12-15T08:58:40.724Z,27.17
2022-12-15T09:01:33.096Z,22.63
2022-12-15T09:04:15.850Z,23.55
2022-12-15T09:06:58.120Z,26.90
2022-12-15T09:09:46.842Z,17.80
2022-12-15T09:12:29.334Z,19.90
2022-12-15T09:15:18.751Z,25.27
2022-12-15T09:18:07.048Z,24.50
2022-12-15T09:20:48.700Z,27.80
2022-12-15T09:23:37.800Z,20.48
2022-12-15T09:26:22.043Z,22.55
2022-12-15T09:29:10.649Z,20.17
2022-12-15T09:31:52.986Z,26.48
2022-12-15T09:34:41.705Z,18.95
2022-12-15T09:37:23.948Z,17.35
2022-12-15T09:40:14.651Z,21.40
2022-12-15T09:43:32.948Z,23.65
2022-12-15T09:46:49.853Z,18.00
2022-12-15T09:49:56.140Z,23.88
2022-12-15T09:52:49.630Z,20.58
2022-12-15T09:55:33.918Z,20.75
2022-12-15T09:58:50.563Z,23.52
2022-12-15T10:01:57.001Z,21.00
2022-12-15T10:05:01.969Z,21.08
2022-12-15T10:07:50.475Z,24.88
2022-12-15T10:10:42.715Z,23.88
2022-12-15T10:13:42.975Z,27.63
2022-12-15T10:16:31.109Z,22.35
2022-12-15T10:19:36.942Z,25.50
2022-12-15T10:22:29.717Z,29.67
2022-12-15T10:25:30.190Z,25.77
2022-12-15T10:28:25.754Z,24.20
2022-12-15T10:31:36.977Z,20.17
2022-12-15T10:34:43.681Z,24.02
2022-12-15T10:37:25.912Z,24.85
2022-12-15T10:40:14.892Z,24.92
2022-12-15T10:42:56.919Z,21.33
2022-12-15T10:45:53.641Z,23.15
2022-12-15T10:48:48.714Z,24.42
2022-12-15T10:51:44.587Z,21.38
2022-12-15T10:54:33.187Z,36.28
2022-12-15T10:57:50.730Z,23.27
2022-12-15T11:00:34.633Z,22.15
2022-12-15T11:03:40.374Z,28.40
2022-12-15T11:06:42.769Z,27.08
2022-12-15T11:09:40.898Z,33.95
2022-12-15T11:12:51.820Z,27.80
2022-12-15T11:15:52.497Z,26.42
2022-12-15T11:18:48.731Z,35.17
2022-12-15T11:21:54.585Z,31.30
2022-12-15T11:24:49.648Z,28.17
2022-12-15T11:27:46.798Z,26.50
2022-12-15T11:30:33.562Z,35.88
2022-12-15T11:33:22.645Z,33.22
2022-12-15T11:36:17.740Z,33.42
2022-12-15T11:39:18.307Z,25.40
2022-12-15T11:42:31.602Z,38.92
2022-12-15T11:45:38.693Z,35.10
2022-12-15T11:48:23.960Z,30.58
2022-12-15T11:51:15.785Z,32.83
2022-12-15T11:54:10.071Z,35.15
2022-12-15T11:57:18.674Z,39.38
2022-12-15T12:00:20.386Z,41.55
2022-12-15T12:03:33.693Z,52.22
2022-12-15T12:06:54.021Z,38.20
2022-12-15T12:09:50.656Z,41.25
2022-12-15T12:12:42.652Z,55.45
2022-12-15T12:15:37.052Z,45.47
2022-12-15T12:18:46.732Z,43.13
2022-12-15T12:21:57.265Z,49.72
2022-12-15T12:24:48.968Z,48.40
2022-12-15T12:27:57.386Z,53.30
2022-12-15T12:31:00.685Z,46.58
2022-12-15T12:33:50.437Z,70.57
2022-12-15T12:36:39.667Z,58.72
2022-12-15T12:39:33.108Z,55.10
2022-12-15T12:42:23.675Z,64.40
2022-12-15T12:45:13.229Z,60.13
2022-12-15T12:48:10.718Z,62.35
2022-12-15T12:50:54.820Z,67.03
2022-12-15T12:53:48.683Z,65.72
2022-12-15T12:56:50.699Z,67.13
2022-12-15T12:59:48.911Z,52.33
2022-12-15T13:02:40.095Z,72.00
2022-12-15T13:05:43.622Z,74.35
2022-12-15T13:08:51.076Z,68.60
2022-12-15T13:12:27.589Z,70.10
2022-12-15T13:15:32.669Z,64.93
2022-12-15T13:18:36.924Z,60.03
2022-12-15T13:21:51.639Z,56.67
2022-12-15T13:24:43.119Z,59.75
2022-12-15T13:27:32.131Z,71.03
2022-12-15T13:30:17.015Z,57.17
2022-12-15T13:33:26.719Z,52.85
2022-12-15T13:36:08.971Z,54.30
2022-12-15T13:39:03.685Z,67.45
2022-12-15T13:45:05.721Z,55.75
2022-12-15T13:48:08.535Z,55.55
2022-12-15T13:51:29.684Z,68.75
2022-12-15T13:54:22.957Z,77.93
2022-12-15T13:57:17.676Z,72.47
2022-12-15T14:00:19.475Z,61.97
2022-12-15T14:03:19.781Z,62.60
2022-12-15T14:06:07.989Z,60.97
2022-12-15T14:08:56.594Z,73.18
2022-12-15T14:14:59.600Z,83.82
2022-12-15T14:17:51.686Z,81.43
2022-12-15T14:20:42.027Z,76.90
2022-12-15T14:24:04.069Z,67.28
2022-12-15T14:26:46.011Z,83.18
2022-12-15T14:29:39.720Z,71.38
2022-12-15T14:32:22.998Z,72.93
2022-12-15T14:35:11.660Z,94.60
2022-12-15T14:37:56.192Z,85.35
2022-12-15T14:40:45.725Z,70.68
2022-12-15T14:44:32.222Z,70.60
2022-12-15T14:46:54.894Z,75.75
2022-12-15T14:49:47.634Z,76.88
2022-12-15T14:52:48.811Z,71.50
2022-12-15T14:55:47.436Z,69.07
2022-12-15T14:58:48.669Z,74.38
2022-12-15T15:02:07.848Z,67.60
2022-12-15T15:03:16.506Z,77.63
2022-12-15T15:05:32.688Z,63.75
2022-12-15T15:08:18.998Z,73.00
2022-12-15T15:11:27.777Z,74.72
2022-12-15T15:14:21.011Z,68.70
2022-12-15T15:17:16.716Z,64.72
2022-12-15T15:20:10.911Z,68.10
2022-12-15T15:23:23.603Z,64.57
2022-12-15T15:26:22.618Z,74.28
2022-12-15T15:29:06.542Z,73.03
2022-12-15T15:31:55.732Z,77.75
2022-12-15T15:34:37.996Z,61.20
2022-12-15T15:37:31.635Z,70.60
2022-12-15T15:40:17.014Z,70.55
2022-12-15T15:42:59.738Z,67.57
2022-12-15T15:45:42.617Z,59.83
2022-12-15T15:48:38.745Z,67.63
2022-12-15T15:51:22.090Z,67.05
2022-12-15T15:54:16.662Z,58.17
2022-12-15T15:56:59.035Z,55.78
2022-12-15T15:59:49.698Z,73.78
2022-12-15T16:02:32.091Z,60.08
2022-12-15T16:05:21.630Z,71.93
2022-12-15T16:08:04.959Z,64.10
2022-12-15T16:10:55.622Z,64.40
2022-12-15T16:13:37.920Z,66.20
2022-12-15T16:16:32.818Z,57.42
2022-12-15T16:19:15.137Z,63.30
2022-12-15T16:22:03.700Z,62.97
2022-12-15T16:24:45.956Z,73.53
2022-12-15T16:27:35.815Z,62.58
2022-12-15T16:30:28.010Z,63.45
2022-12-15T16:33:17.691Z,66.05
2022-12-15T16:36:01.037Z,69.63
2022-12-15T16:38:51.639Z,79.38
2022-12-15T16:41:34.045Z,85.45
2022-12-15T16:44:22.911Z,67.45
2022-12-15T16:47:06.049Z,80.65
2022-12-15T16:49:54.662Z,85.75
2022-12-15T16:52:36.989Z,77.13
2022-12-15T16:55:43.579Z,78.97
2022-12-15T16:58:26.287Z,72.25
2022-12-15T17:01:16.897Z,81.53
2022-12-15T17:03:59.137Z,80.18
2022-12-15T17:06:47.608Z,79.47
2022-12-15T17:09:37.780Z,82.15
2022-12-15T17:12:26.650Z,78.15
2022-12-15T17:15:09.021Z,87.25
2022-12-15T17:17:58.600Z,77.07
2022-12-15T17:20:41.045Z,79.57
2022-12-15T17:23:32.938Z,73.22
2022-12-15T17:26:28.642Z,77.97
2022-12-15T17:29:22.203Z,72.63
2022-12-15T17:32:10.682Z,75.90
2022-12-15T17:34:53.987Z,68.50
2022-12-15T17:37:43.033Z,69.03
2022-12-15T17:40:25.717Z,71.88
2022-12-15T17:43:14.678Z,61.50
2022-12-15T17:46:04.149Z,73.03
2022-12-15T17:48:45.665Z,64.50
2022-12-15T17:51:40.555Z,66.38
2022-12-15T17:54:29.641Z,64.70
2022-12-15T17:57:12.081Z,73.90
2022-12-15T18:00:00.799Z,63.13
2022-12-15T18:02:49.857Z,60.08
2022-12-15T18:05:39.063Z,69.30
2022-12-15T18:08:41.713Z,71.22
2022-12-15T18:11:32.959Z,70.20
2022-12-15T18:14:23.620Z,76.10
2022-12-15T18:17:16.159Z,68.47
2022-12-15T18:20:04.844Z,66.80
2022-12-15T18:22:56.020Z,69.00
2022-12-15T18:25:39.487Z,76.40
2022-12-15T18:28:32.735Z,73.20
2022-12-15T18:31:27.277Z,80.40
2022-12-15T18:34:25.653Z,70.10
2022-12-15T18:37:08.115Z,68.50
2022-12-15T18:40:03.985Z,71.53
2022-12-15T18:42:46.998Z,71.95
2022-12-15T18:45:36.561Z,65.95
2022-12-15T18:48:45.494Z,69.32
2022-12-15T18:51:34.658Z,75.97
2022-12-15T18:54:27.996Z,73.80
2022-12-15T18:57:31.761Z,70.65
2022-12-15T19:00:25.572Z,64.72
2022-12-15T19:03:14.547Z,73.95
2022-12-15T19:06:11.719Z,69.13
2022-12-15T19:09:03.473Z,70.95
2022-12-15T19:12:06.778Z,71.50
2022-12-15T19:14:59.665Z,64.28
2022-12-15T19:18:00.536Z,66.10
2022-12-15T19:21:22.636Z,72.25
2022-12-15T19:24:04.874Z,69.75
2022-12-15T19:26:53.564Z,71.88
2022-12-15T19:29:35.940Z,64.35
2022-12-15T19:32:24.607Z,69.03
2022-12-15T19:35:06.987Z,67.90
2022-12-15T19:37:57.613Z,63.47
2022-12-15T19:40:41.951Z,70.38
2022-12-15T19:43:32.273Z,68.05
2022-12-15T19:46:18.145Z,76.53
2022-12-15T19:49:06.590Z,66.00
2022-12-15T19:51:55.564Z,72.32
2022-12-15T19:54:43.984Z,76.03
2022-12-15T19:57:28.565Z,77.00
2022-12-15T20:00:31.822Z,72.63
2022-12-15T20:03:20.546Z,78.35
2022-12-15T20:06:04.267Z,68.00
2022-12-15T20:08:57.519Z,72.60
2022-12-15T20:11:46.625Z,80.60
2022-12-15T20:14:29.084Z,76.57
2022-12-15T20:17:17.519Z,83.63
2022-12-15T20:20:00.010Z,85.43
2022-12-15T20:22:48.598Z,75.95
2022-12-15T20:25:35.352Z,96.00
2022-12-15T20:28:28.645Z,78.63
2022-12-15T20:31:10.930Z,77.28
2022-12-15T20:33:59.569Z,83.75
2022-12-15T20:36:41.980Z,81.32
2022-12-15T20:39:38.530Z,89.78
2022-12-15T20:42:31.510Z,79.60
2022-12-15T20:45:26.946Z,85.78
2022-12-15T20:48:10.968Z,83.00
2022-12-15T20:51:01.837Z,94.20
2022-12-15T20:56:29.867Z,87.15
2022-12-15T20:59:18.521Z,82.55
2022-12-15T21:02:07.835Z,87.95
2022-12-15T21:04:49.873Z,98.00
2022-12-15T21:07:38.600Z,87.07
2022-12-15T21:10:29.523Z,110.90
2022-12-15T21:13:27.371Z,110.30
2022-12-15T21:16:10.474Z,94.20
2022-12-15T21:22:04.626Z,97.93
2022-12-15T21:24:53.846Z,89.05
2022-12-15T21:27:36.638Z,91.88
2022-12-15T21:30:22.819Z,100.97
2022-12-15T21:33:11.451Z,92.90
2022-12-15T21:35:59.951Z,93.88
2022-12-15T21:38:47.640Z,101.13
2022-12-15T21:41:29.849Z,87.70
2022-12-15T21:44:18.645Z,96.38
2022-12-15T21:47:01.007Z,102.10
2022-12-15T21:49:49.583Z,94.40
2022-12-15T21:52:39.589Z,88.18
2022-12-15T21:55:33.554Z,95.90
2022-12-15T21:58:25.441Z,100.78
2022-12-15T22:01:15.682Z,106.78
2022-12-15T22:04:08.826Z,80.75
2022-12-15T22:06:51.641Z,99.28
2022-12-15T22:09:33.770Z,93.30
2022-12-15T22:12:34.496Z,87.68
2022-12-15T22:15:28.679Z,91.65
2022-12-15T22:18:19.597Z,98.80
2022-12-15T22:21:01.769Z,92.75
2022-12-15T22:23:50.542Z,97.65
2022-12-15T22:26:40.536Z,101.53
2022-12-15T22:29:32.868Z,92.85
2022-12-15T22:32:22.578Z,102.38
2022-12-15T22:35:04.838Z,95.13
2022-12-15T22:37:55.259Z,98.70
2022-12-15T22:40:37.855Z,97.20
2022-12-15T22:43:33.650Z,90.25
2022-12-15T22:46:19.997Z,94.43
2022-12-15T22:49:08.489Z,99.88
2022-12-15T22:51:50.927Z,92.53
2022-12-15T22:54:45.505Z,90.53
2022-12-15T22:57:45.848Z,95.60
2022-12-15T23:00:34.564Z,93.57
2022-12-15T23:03:25.838Z,97.70
2022-12-15T23:06:07.966Z,92.63
2022-12-15T23:08:59.599Z,90.85
2022-12-15T23:11:47.854Z,92.78
2022-12-15T23:14:49.540Z,89.28
2022-12-15T23:17:31.736Z,94.82
2022-12-15T23:20:21.438Z,97.03
2022-12-15T23:23:04.405Z,92.25
2022-12-15T23:25:54.506Z,104.40
2022-12-15T23:28:37.496Z,96.78
2022-12-15T23:31:26.658Z,99.57
2022-12-15T23:34:16.593Z,93.78
2022-12-15T23:37:05.608Z,96.45
2022-12-15T23:39:54.480Z,108.00
2022-12-15T23:42:36.916Z,96.30
2022-12-15T23:45:25.513Z,96.50
2022-12-15T23:48:08.698Z,90.30
2022-12-15T23:50:57.516Z,100.50
2022-12-15T23:53:40.887Z,102.20
2022-12-15T23:56:32.468Z,98.75
2022-12-15T23:59:21.621Z,99.13
